createdAt,value
2019-03-23T00:01:16.872Z,12.63
2019-03-23T00:03:47.088Z,12.20
2019-03-23T00:06:17.550Z,12.00
2019-03-23T00:08:47.814Z,13.50
2019-03-23T00:11:18.007Z,12.93
2019-03-23T00:13:48.239Z,12.73
2019-03-23T00:16:18.418Z,12.53
2019-03-23T00:18:51.396Z,13.30
2019-03-23T00:21:21.602Z,13.22
2019-03-23T00:23:51.802Z,11.77
2019-03-23T00:26:21.983Z,12.57
2019-03-23T00:28:52.182Z,12.18
2019-03-23T00:31:22.367Z,11.27
2019-03-23T00:33:52.571Z,12.73
2019-03-23T00:36:22.777Z,11.23
2019-03-23T00:38:52.978Z,13.47
2019-03-23T00:41:23.158Z,11.40
2019-03-23T00:43:53.606Z,10.63
2019-03-23T00:46:23.797Z,10.80
2019-03-23T00:48:53.994Z,10.70
2019-03-23T00:51:25.230Z,10.35
2019-03-23T00:53:55.468Z,11.70
2019-03-23T00:56:25.633Z,10.23
2019-03-23T00:58:55.828Z,9.47
2019-03-23T01:01:26.404Z,8.68
2019-03-23T01:03:56.602Z,7.43
2019-03-23T01:06:26.856Z,8.33
2019-03-23T01:08:57.289Z,8.20
2019-03-23T01:11:27.469Z,9.63
2019-03-23T01:13:57.912Z,8.00
2019-03-23T01:16:28.101Z,9.40
2019-03-23T01:18:58.297Z,10.37
2019-03-23T01:21:28.477Z,9.87
2019-03-23T01:23:58.666Z,9.13
2019-03-23T01:26:28.845Z,9.33
2019-03-23T01:28:59.300Z,8.67
2019-03-23T01:31:29.481Z,7.97
2019-03-23T01:33:59.928Z,8.10
2019-03-23T01:36:30.507Z,8.15
2019-03-23T01:39:00.714Z,8.60
2019-03-23T01:41:32.823Z,7.77
2019-03-23T01:44:03.127Z,7.50
2019-03-23T01:46:33.304Z,7.83
2019-03-23T01:49:03.508Z,9.23
2019-03-23T01:51:33.689Z,9.97
2019-03-23T01:54:04.648Z,9.25
2019-03-23T01:56:35.141Z,8.78
2019-03-23T01:59:05.687Z,8.50
2019-03-23T02:01:35.926Z,7.00
2019-03-23T02:04:06.172Z,8.05
2019-03-23T02:06:36.365Z,8.60
2019-03-23T02:09:08.183Z,8.30
2019-03-23T02:11:38.383Z,8.73
2019-03-23T02:14:08.656Z,8.05
2019-03-23T02:16:39.144Z,7.97
2019-03-23T02:19:09.324Z,8.33
2019-03-23T02:21:39.510Z,8.47
2019-03-23T02:24:09.704Z,7.80
2019-03-23T02:26:39.892Z,8.25
2019-03-23T02:29:10.067Z,7.75
2019-03-23T02:31:40.286Z,8.07
2019-03-23T02:34:10.509Z,8.37
2019-03-23T02:36:40.712Z,8.88
2019-03-23T02:39:10.970Z,10.13
2019-03-23T02:41:41.213Z,9.67
2019-03-23T02:44:11.474Z,10.70
2019-03-23T02:46:41.798Z,11.40
2019-03-23T02:49:11.924Z,10.60
2019-03-23T02:51:42.408Z,12.37
2019-03-23T02:54:12.772Z,9.67
2019-03-23T02:56:42.972Z,10.23
2019-03-23T02:59:13.192Z,10.13
2019-03-23T03:01:43.427Z,9.77
2019-03-23T03:04:13.884Z,10.07
2019-03-23T03:06:44.600Z,8.90
2019-03-23T03:09:14.873Z,11.10
2019-03-23T03:11:45.424Z,11.83
2019-03-23T03:14:15.627Z,10.00
2019-03-23T03:16:45.859Z,12.33
2019-03-23T03:19:16.049Z,10.43
2019-03-23T03:21:46.325Z,10.97
2019-03-23T03:24:16.513Z,11.20
2019-03-23T03:26:46.719Z,10.93
2019-03-23T03:29:16.932Z,10.77
2019-03-23T03:31:47.294Z,11.77
2019-03-23T03:34:17.484Z,10.07
2019-03-23T03:36:47.767Z,10.10
2019-03-23T03:39:17.972Z,10.88
2019-03-23T03:41:48.275Z,12.07
2019-03-23T03:44:18.428Z,10.73
2019-03-23T03:46:48.624Z,11.17
2019-03-23T03:49:19.048Z,11.03
2019-03-23T03:51:49.255Z,11.03
2019-03-23T03:54:19.530Z,10.83
2019-03-23T03:56:49.742Z,11.20
2019-03-23T03:59:19.922Z,11.55
2019-03-23T04:01:50.123Z,10.67
2019-03-23T04:04:20.383Z,10.50
2019-03-23T04:06:50.704Z,9.90
2019-03-23T04:09:20.894Z,10.77
2019-03-23T04:11:52.063Z,10.57
2019-03-23T04:14:22.250Z,10.67
2019-03-23T04:16:52.690Z,10.60
2019-03-23T04:19:23.113Z,10.20
2019-03-23T04:21:54.356Z,10.03
2019-03-23T04:24:24.525Z,9.87
2019-03-23T04:26:54.805Z,10.23
2019-03-23T04:29:25.011Z,9.57
2019-03-23T04:31:56.359Z,10.47
2019-03-23T04:34:26.557Z,9.50
2019-03-23T04:36:56.757Z,10.00
2019-03-23T04:39:26.980Z,10.25
2019-03-23T04:41:57.183Z,10.23
2019-03-23T04:44:27.366Z,9.90
2019-03-23T04:46:57.549Z,10.17
2019-03-23T04:49:27.751Z,10.53
2019-03-23T04:51:58.231Z,10.40
2019-03-23T04:54:28.770Z,10.00
2019-03-23T04:56:59.403Z,8.83
2019-03-23T04:59:29.602Z,10.03
2019-03-23T05:01:59.806Z,9.53
2019-03-23T05:04:30.326Z,9.90
2019-03-23T05:07:00.657Z,9.80
2019-03-23T05:09:31.264Z,9.50
2019-03-23T05:12:01.557Z,9.97
2019-03-23T05:14:31.742Z,9.85
2019-03-23T05:17:02.537Z,8.70
2019-03-23T05:19:32.710Z,9.00
2019-03-23T05:22:02.992Z,8.70
2019-03-23T05:24:33.160Z,9.17
2019-03-23T05:27:03.356Z,8.40
2019-03-23T05:29:33.538Z,8.40
2019-03-23T05:32:04.119Z,7.87
2019-03-23T05:34:34.307Z,7.47
2019-03-23T05:37:04.498Z,7.27
2019-03-23T05:39:34.693Z,6.93
2019-03-23T05:42:04.965Z,6.77
2019-03-23T05:44:35.153Z,7.50
2019-03-23T05:47:05.487Z,8.10
2019-03-23T05:49:35.750Z,6.37
2019-03-23T05:52:06.064Z,7.00
2019-03-23T05:54:36.471Z,6.65
2019-03-23T05:57:06.673Z,6.00
2019-03-23T05:59:37.372Z,6.37
2019-03-23T06:02:07.641Z,5.60
2019-03-23T06:04:37.898Z,5.22
2019-03-23T06:07:08.105Z,5.60
2019-03-23T06:09:38.549Z,5.20
2019-03-23T06:12:08.824Z,5.15
2019-03-23T06:14:39.011Z,5.13
2019-03-23T06:17:09.218Z,4.57
2019-03-23T06:19:39.504Z,4.27
2019-03-23T06:22:09.681Z,4.50
2019-03-23T06:24:39.870Z,5.25
2019-03-23T06:27:10.133Z,5.27
2019-03-23T06:29:40.326Z,5.60
2019-03-23T06:32:10.579Z,5.30
2019-03-23T06:34:40.851Z,5.50
2019-03-23T06:37:11.040Z,5.40
2019-03-23T06:39:41.226Z,6.00
2019-03-23T06:42:11.414Z,5.57
2019-03-23T06:44:41.606Z,4.77
2019-03-23T06:47:11.795Z,4.57
2019-03-23T06:49:41.970Z,4.50
2019-03-23T06:52:12.233Z,4.20
2019-03-23T06:54:42.408Z,4.60
2019-03-23T06:57:13.810Z,4.67
2019-03-23T06:59:43.984Z,4.27
2019-03-23T07:02:15.291Z,4.70
2019-03-23T07:04:45.467Z,4.47
2019-03-23T07:07:15.978Z,4.20
2019-03-23T07:09:46.160Z,4.10
2019-03-23T07:12:16.426Z,4.43
2019-03-23T07:14:46.606Z,3.03
2019-03-23T07:17:16.783Z,3.10
2019-03-23T07:19:47.220Z,2.83
2019-03-23T07:22:17.407Z,3.03
2019-03-23T07:24:47.608Z,3.10
2019-03-23T07:27:18.763Z,2.70
2019-03-23T07:29:49.045Z,2.63
2019-03-23T07:32:19.370Z,3.10
2019-03-23T07:34:49.568Z,3.00
2019-03-23T07:37:19.844Z,2.70
2019-03-23T07:39:50.116Z,3.17
2019-03-23T07:42:21.365Z,2.52
2019-03-23T07:44:51.561Z,2.90
2019-03-23T07:47:22.171Z,2.70
2019-03-23T07:49:53.350Z,2.60
2019-03-23T07:52:23.568Z,2.50
2019-03-23T07:54:53.840Z,3.23
2019-03-23T07:57:24.628Z,3.07
2019-03-23T07:59:54.946Z,2.70
2019-03-23T08:02:25.131Z,3.10
2019-03-23T08:04:56.612Z,2.67
2019-03-23T08:07:26.800Z,3.30
2019-03-23T08:09:57.004Z,3.05
2019-03-23T08:12:27.191Z,2.77
2019-03-23T08:14:57.420Z,3.33
2019-03-23T08:17:27.767Z,3.90
2019-03-23T08:19:58.043Z,3.53
2019-03-23T08:22:28.562Z,2.80
2019-03-23T08:24:58.838Z,3.43
2019-03-23T08:27:29.295Z,3.80
2019-03-23T08:29:59.497Z,3.80
2019-03-23T08:32:29.675Z,3.80
2019-03-23T08:34:59.867Z,4.17
2019-03-23T08:37:32.182Z,3.37
2019-03-23T08:40:02.376Z,3.80
2019-03-23T08:42:34.901Z,3.73
2019-03-23T08:45:06.661Z,3.65
2019-03-23T08:47:37.008Z,3.90
2019-03-23T08:50:08.933Z,3.70
2019-03-23T08:52:39.120Z,3.67
2019-03-23T08:55:09.590Z,3.80
2019-03-23T08:57:41.455Z,3.13
2019-03-23T09:00:12.210Z,3.50
2019-03-23T09:02:42.471Z,3.63
2019-03-23T09:05:12.820Z,3.70
2019-03-23T09:07:43.003Z,3.30
2019-03-23T09:10:13.758Z,3.40
2019-03-23T09:12:43.945Z,3.70
2019-03-23T09:15:14.439Z,3.90
2019-03-23T09:17:44.861Z,4.27
2019-03-23T09:20:15.210Z,4.03
2019-03-23T09:22:45.399Z,4.00
2019-03-23T09:25:15.598Z,3.55
2019-03-23T09:27:45.789Z,4.03
2019-03-23T09:30:16.077Z,3.70
2019-03-23T09:32:46.325Z,3.50
2019-03-23T09:35:16.541Z,3.70
2019-03-23T09:37:46.726Z,3.27
2019-03-23T09:40:16.932Z,3.17
2019-03-23T09:42:47.341Z,3.67
2019-03-23T09:45:18.642Z,3.70
2019-03-23T09:47:48.833Z,3.45
2019-03-23T09:50:19.068Z,3.67
2019-03-23T09:52:49.325Z,3.70
2019-03-23T09:55:21.057Z,4.07
2019-03-23T09:57:51.311Z,4.05
2019-03-23T10:00:21.539Z,3.60
2019-03-23T10:02:52.284Z,3.90
2019-03-23T10:05:22.727Z,3.80
2019-03-23T10:07:52.996Z,4.10
2019-03-23T10:10:23.189Z,4.40
2019-03-23T10:12:53.382Z,4.27
2019-03-23T10:15:23.586Z,4.70
2019-03-23T10:17:53.764Z,3.73
2019-03-23T10:20:24.070Z,3.97
2019-03-23T10:22:54.268Z,4.00
2019-03-23T10:25:24.454Z,4.28
2019-03-23T10:27:54.878Z,4.30
2019-03-23T10:30:25.073Z,4.05
2019-03-23T10:32:55.267Z,4.57
2019-03-23T10:35:25.809Z,5.30
2019-03-23T10:37:56.004Z,5.40
2019-03-23T10:40:32.425Z,4.80
2019-03-23T10:42:59.154Z,4.63
2019-03-23T10:45:30.761Z,5.10
2019-03-23T10:48:00.952Z,5.60
2019-03-23T10:50:31.305Z,5.73
2019-03-23T10:53:01.491Z,5.07
2019-03-23T10:55:31.942Z,5.37
2019-03-23T10:58:02.130Z,5.20
2019-03-23T11:00:32.599Z,5.60
2019-03-23T11:03:02.961Z,5.78
2019-03-23T11:05:33.156Z,5.57
2019-03-23T11:08:03.347Z,5.62
2019-03-23T11:10:41.536Z,5.60
2019-03-23T11:13:05.431Z,6.65
2019-03-23T11:15:35.697Z,5.23
2019-03-23T11:18:06.074Z,6.10
2019-03-23T11:20:36.257Z,6.43
2019-03-23T11:23:06.524Z,5.57
2019-03-23T11:25:36.710Z,4.83
2019-03-23T11:28:06.912Z,5.70
2019-03-23T11:30:37.094Z,5.07
2019-03-23T11:33:07.290Z,5.33
2019-03-23T11:35:37.469Z,5.25
2019-03-23T11:38:07.743Z,6.30
2019-03-23T11:40:37.935Z,6.10
2019-03-23T11:43:08.138Z,7.12
2019-03-23T11:45:38.346Z,6.08
2019-03-23T11:48:08.990Z,5.97
2019-03-23T11:50:39.416Z,6.67
2019-03-23T11:53:09.614Z,4.90
2019-03-23T11:55:39.813Z,5.87
2019-03-23T11:58:10.009Z,6.53
2019-03-23T12:00:40.212Z,6.20
2019-03-23T12:03:10.412Z,6.80
2019-03-23T12:05:40.601Z,5.87
2019-03-23T12:08:10.829Z,5.33
2019-03-23T12:10:41.362Z,5.53
2019-03-23T12:13:11.564Z,5.08
2019-03-23T12:15:41.831Z,6.17
2019-03-23T12:18:12.026Z,5.97
2019-03-23T12:20:42.292Z,5.53
2019-03-23T12:23:12.493Z,6.67
2019-03-23T12:25:42.680Z,15.38
2019-03-23T12:28:12.882Z,6.70
2019-03-23T12:30:43.058Z,5.90
2019-03-23T12:33:13.639Z,5.87
2019-03-23T12:35:44.207Z,4.95
2019-03-23T12:38:14.712Z,6.73
2019-03-23T12:40:44.902Z,6.87
2019-03-23T12:43:15.464Z,6.50
2019-03-23T12:45:45.718Z,5.87
2019-03-23T12:48:15.907Z,6.50
2019-03-23T12:50:46.091Z,6.07
2019-03-23T12:53:16.297Z,6.00
2019-03-23T12:55:46.484Z,5.33
2019-03-23T12:58:17.027Z,6.08
2019-03-23T13:00:47.584Z,6.50
2019-03-23T13:03:17.778Z,5.53
2019-03-23T13:05:47.971Z,5.40
2019-03-23T13:08:18.180Z,6.23
2019-03-23T13:10:48.426Z,6.17
2019-03-23T13:13:18.642Z,6.10
2019-03-23T13:15:49.081Z,6.10
2019-03-23T13:18:27.090Z,6.12
2019-03-23T13:20:51.566Z,6.37
2019-03-23T13:23:21.788Z,6.87
2019-03-23T13:25:52.681Z,6.33
2019-03-23T13:28:22.937Z,6.63
2019-03-23T13:30:53.217Z,6.13
2019-03-23T13:33:23.412Z,7.13
2019-03-23T13:35:53.620Z,6.87
2019-03-23T13:38:23.936Z,6.60
2019-03-23T13:40:54.308Z,8.53
2019-03-23T13:43:24.498Z,9.10
2019-03-23T13:45:54.782Z,9.77
2019-03-23T13:48:24.968Z,9.97
2019-03-23T13:50:55.163Z,8.90
2019-03-23T13:53:25.358Z,9.43
2019-03-23T13:55:55.808Z,9.43
2019-03-23T13:58:26.968Z,9.03
2019-03-23T14:00:57.410Z,9.18
2019-03-23T14:03:27.963Z,9.03
2019-03-23T14:05:58.159Z,9.40
2019-03-23T14:08:28.706Z,11.93
2019-03-23T14:10:59.240Z,10.18
2019-03-23T14:13:29.427Z,8.93
2019-03-23T14:15:59.984Z,9.00
2019-03-23T14:18:30.423Z,9.95
2019-03-23T14:21:00.722Z,9.90
2019-03-23T14:23:31.077Z,9.65
2019-03-23T14:26:02.326Z,9.38
2019-03-23T14:28:32.768Z,10.33
2019-03-23T14:31:02.969Z,10.30
2019-03-23T14:33:33.163Z,10.20
2019-03-23T14:36:04.904Z,11.27
2019-03-23T14:38:35.146Z,11.22
2019-03-23T14:41:05.350Z,12.23
2019-03-23T14:43:35.630Z,11.87
2019-03-23T14:46:05.843Z,11.37
2019-03-23T14:48:36.029Z,11.93
2019-03-23T14:51:06.232Z,11.07
2019-03-23T14:53:36.420Z,11.20
2019-03-23T14:56:06.639Z,11.23
2019-03-23T14:58:36.824Z,10.80
2019-03-23T15:01:07.037Z,10.87
2019-03-23T15:03:37.223Z,11.57
2019-03-23T15:06:07.673Z,11.80
2019-03-23T15:08:37.956Z,11.20
2019-03-23T15:11:08.406Z,11.77
2019-03-23T15:13:38.601Z,11.73
2019-03-23T15:16:09.053Z,12.07
2019-03-23T15:18:39.247Z,12.37
2019-03-23T15:21:09.702Z,11.00
2019-03-23T15:23:39.902Z,12.15
2019-03-23T15:26:10.198Z,11.63
2019-03-23T15:28:40.385Z,12.03
2019-03-23T15:31:10.597Z,13.37
2019-03-23T15:33:40.801Z,14.03
2019-03-23T15:36:11.254Z,13.13
2019-03-23T15:38:42.427Z,13.57
2019-03-23T15:41:12.628Z,13.77
2019-03-23T15:43:42.815Z,13.30
2019-03-23T15:46:13.335Z,14.30
2019-03-23T15:48:43.523Z,13.95
2019-03-23T15:51:13.724Z,15.05
2019-03-23T15:53:43.905Z,14.30
2019-03-23T15:56:14.352Z,14.28
2019-03-23T15:58:44.546Z,13.63
2019-03-23T16:01:14.996Z,14.03
2019-03-23T16:03:45.293Z,14.07
2019-03-23T16:06:15.787Z,14.17
2019-03-23T16:08:46.080Z,14.37
2019-03-23T16:11:16.309Z,13.87
2019-03-23T16:13:46.496Z,13.32
2019-03-23T16:16:16.778Z,14.70
2019-03-23T16:18:46.965Z,13.30
2019-03-23T16:21:17.175Z,14.83
2019-03-23T16:23:47.385Z,12.90
2019-03-23T16:26:17.823Z,12.90
2019-03-23T16:28:48.029Z,13.43
2019-03-23T16:31:18.219Z,13.03
2019-03-23T16:33:48.428Z,13.97
2019-03-23T16:36:18.606Z,13.20
2019-03-23T16:38:48.846Z,14.60
2019-03-23T16:41:19.040Z,15.20
2019-03-23T16:43:49.260Z,15.73
2019-03-23T16:46:19.461Z,15.85
2019-03-23T16:48:49.660Z,14.78
2019-03-23T16:51:19.847Z,15.00
2019-03-23T16:53:50.050Z,15.50
2019-03-23T16:56:20.284Z,15.90
2019-03-23T16:58:51.405Z,15.65
2019-03-23T17:01:22.557Z,16.07
2019-03-23T17:03:53.366Z,19.57
2019-03-23T17:06:23.813Z,18.90
2019-03-23T17:08:54.271Z,20.57
2019-03-23T17:11:24.760Z,20.15
2019-03-23T17:13:55.055Z,24.45
2019-03-23T17:16:25.252Z,31.13
2019-03-23T17:18:55.716Z,28.90
2019-03-23T17:21:26.259Z,30.65
2019-03-23T17:23:56.465Z,31.60
2019-03-23T17:26:26.655Z,33.63
2019-03-23T17:28:56.855Z,33.83
2019-03-23T17:31:27.057Z,33.83
2019-03-23T17:33:57.273Z,34.92
2019-03-23T17:36:28.455Z,32.87
2019-03-23T17:38:58.985Z,36.20
2019-03-23T17:41:29.264Z,34.30
2019-03-23T17:43:59.881Z,35.13
2019-03-23T17:46:30.066Z,34.80
2019-03-23T17:49:00.272Z,36.27
2019-03-23T17:51:30.463Z,34.70
2019-03-23T17:54:00.661Z,34.73
2019-03-23T17:56:31.274Z,33.33
2019-03-23T17:59:02.450Z,36.70
2019-03-23T18:01:33.085Z,36.20
2019-03-23T18:04:04.646Z,34.83
2019-03-23T18:06:35.253Z,35.48
2019-03-23T18:09:06.557Z,33.87
2019-03-23T18:11:37.384Z,34.77
2019-03-23T18:14:08.250Z,28.02
2019-03-23T18:16:38.513Z,30.90
2019-03-23T18:19:08.901Z,33.23
2019-03-23T18:21:39.299Z,25.20
2019-03-23T18:24:09.780Z,29.60
2019-03-23T18:26:39.973Z,29.93
2019-03-23T18:29:10.611Z,31.23
2019-03-23T18:31:41.091Z,32.47
2019-03-23T18:34:11.580Z,31.63
2019-03-23T18:36:42.016Z,29.60
2019-03-23T18:39:12.337Z,30.93
2019-03-23T18:41:42.618Z,27.90
2019-03-23T18:44:16.499Z,29.10
2019-03-23T18:46:45.266Z,29.23
2019-03-23T18:49:15.716Z,29.23
2019-03-23T18:51:45.904Z,31.93
2019-03-23T18:54:16.644Z,30.97
2019-03-23T18:56:47.443Z,31.40
2019-03-23T18:59:18.073Z,33.90
2019-03-23T19:01:49.268Z,29.80
2019-03-23T19:04:19.554Z,29.43
2019-03-23T19:06:49.813Z,26.83
2019-03-23T19:09:20.022Z,27.40
2019-03-23T19:11:50.209Z,26.23
2019-03-23T19:14:20.410Z,25.80
2019-03-23T19:16:50.602Z,25.80
2019-03-23T19:19:20.794Z,24.95
2019-03-23T19:21:50.983Z,23.60
2019-03-23T19:24:21.416Z,24.33
2019-03-23T19:26:52.433Z,22.27
2019-03-23T19:29:22.860Z,22.42
2019-03-23T19:31:53.109Z,19.95
2019-03-23T19:34:24.215Z,21.68
2019-03-23T19:36:54.429Z,19.97
2019-03-23T19:39:24.637Z,21.13
2019-03-23T19:41:54.839Z,20.70
2019-03-23T19:44:25.297Z,22.10
2019-03-23T19:46:55.750Z,21.53
2019-03-23T19:49:26.472Z,20.10
2019-03-23T19:51:56.676Z,21.63
2019-03-23T19:54:26.898Z,21.35
2019-03-23T19:56:57.141Z,21.83
2019-03-23T19:59:27.358Z,20.52
2019-03-23T20:01:57.614Z,21.33
2019-03-23T20:04:27.822Z,20.23
2019-03-23T20:06:58.021Z,21.27
2019-03-23T20:09:28.238Z,20.03
2019-03-23T20:11:58.711Z,20.55
2019-03-23T20:14:28.891Z,21.02
2019-03-23T20:16:59.096Z,21.50
2019-03-23T20:19:29.534Z,20.73
2019-03-23T20:22:00.709Z,21.80
2019-03-23T20:24:30.888Z,21.30
2019-03-23T20:27:01.353Z,21.90
2019-03-23T20:29:31.543Z,21.17
2019-03-23T20:32:01.989Z,21.40
2019-03-23T20:34:32.456Z,22.37
2019-03-23T20:37:02.658Z,21.07
2019-03-23T20:39:32.842Z,19.80
2019-03-23T20:42:03.036Z,18.53
2019-03-23T20:44:33.232Z,21.20
2019-03-23T20:47:03.664Z,20.57
2019-03-23T20:49:33.935Z,21.93
2019-03-23T20:52:04.380Z,21.40
2019-03-23T20:54:37.224Z,23.20
2019-03-23T20:57:07.353Z,20.43
2019-03-23T20:59:37.537Z,21.05
2019-03-23T21:02:07.982Z,21.67
2019-03-23T21:04:38.168Z,21.90
2019-03-23T21:07:08.352Z,19.67
2019-03-23T21:09:38.555Z,20.13
2019-03-23T21:12:08.833Z,20.73
2019-03-23T21:14:39.021Z,20.32
2019-03-23T21:17:09.295Z,19.43
2019-03-23T21:19:39.727Z,20.40
2019-03-23T21:22:09.918Z,20.40
2019-03-23T21:24:40.117Z,20.05
2019-03-23T21:27:10.834Z,19.62
2019-03-23T21:29:41.938Z,20.05
2019-03-23T21:32:12.377Z,19.23
2019-03-23T21:34:42.801Z,19.80
2019-03-23T21:37:13.244Z,19.43
2019-03-23T21:39:43.436Z,21.10
2019-03-23T21:42:13.873Z,19.57
2019-03-23T21:44:45.281Z,20.20
2019-03-23T21:47:15.505Z,20.40
2019-03-23T21:49:45.695Z,20.47
2019-03-23T21:52:15.905Z,20.77
2019-03-23T21:54:46.097Z,22.00
2019-03-23T21:57:16.347Z,20.97
2019-03-23T21:59:46.568Z,18.50
2019-03-23T22:02:16.765Z,20.37
2019-03-23T22:04:46.952Z,21.37
2019-03-23T22:07:17.142Z,19.40
2019-03-23T22:09:47.333Z,19.42
2019-03-23T22:12:17.534Z,20.60
2019-03-23T22:14:48.597Z,21.55
2019-03-23T22:17:18.793Z,21.03
2019-03-23T22:19:48.983Z,20.53
2019-03-23T22:22:19.184Z,21.45
2019-03-23T22:24:49.371Z,19.65
2019-03-23T22:27:19.569Z,21.80
2019-03-23T22:29:49.749Z,18.10
2019-03-23T22:32:20.014Z,19.17
2019-03-23T22:34:50.487Z,19.57
2019-03-23T22:37:21.453Z,22.23
2019-03-23T22:39:51.887Z,21.17
2019-03-23T22:42:22.325Z,22.00
2019-03-23T22:44:52.944Z,20.23
2019-03-23T22:47:23.175Z,21.97
2019-03-23T22:49:53.370Z,21.97
2019-03-23T22:52:24.843Z,21.33
2019-03-23T22:54:55.028Z,21.48
2019-03-23T22:57:25.236Z,21.57
2019-03-23T22:59:55.416Z,21.33
2019-03-23T23:02:29.504Z,21.33
2019-03-23T23:04:59.695Z,20.93
2019-03-23T23:07:29.879Z,22.30
2019-03-23T23:10:00.314Z,22.50
2019-03-23T23:12:30.791Z,23.90
2019-03-23T23:15:04.886Z,21.53
2019-03-23T23:17:34.040Z,22.35
2019-03-23T23:20:04.796Z,21.50
2019-03-23T23:22:35.275Z,22.27
2019-03-23T23:25:06.300Z,21.97
2019-03-23T23:27:36.508Z,22.90
2019-03-23T23:30:08.622Z,19.50
2019-03-23T23:32:38.921Z,19.27
2019-03-23T23:35:09.673Z,19.90
2019-03-23T23:37:40.235Z,20.37
2019-03-23T23:40:10.679Z,18.50
2019-03-23T23:42:41.146Z,22.13
2019-03-23T23:45:15.559Z,19.77
2019-03-23T23:47:44.575Z,20.80
2019-03-23T23:50:15.004Z,20.87
2019-03-23T23:52:45.304Z,19.30
2019-03-23T23:55:15.500Z,19.48
2019-03-23T23:57:45.697Z,20.67
